AirNav   Everest Fuels
 
 1003 users online  

2NC0 Mountain Air Airport
Burnsville, North Carolina, USA

GOING TO BURNSVILLE?


FAA INFORMATION EFFECTIVE 30 DECEMBER 2021

Location

FAA Identifier: 2NC0
Lat/Long: 35-52-07.4080N 082-20-30.4590W
35-52.123467N 082-20.507650W
35.8687244,-82.3417942
(estimated)
Elevation: 4432 ft. / 1351 m (estimated)
Variation: 04W (1985)
From city: 6 miles SW of BURNSVILLE, NC
Time zone: UTC -5 (UTC -4 during Daylight Saving Time)
Zip code: 28714

Airport Operations

Airport use: Private use. Permission required prior to landing
Activation date: 11/1990
Control tower: no
ARTCC: ATLANTA CENTER
FSS: RALEIGH FLIGHT SERVICE STATION
Attendance: APR-OCT DAYLIGHT HOURS
Wind indicator: yes
Segmented circle: no

Airport Communications

CTAF/UNICOM: 122.725

Nearby radio navigation aids

VOR radial/distance  VOR name  Freq  Var
SUGr355/28.0SUGARLOAF MOUNTAIN VORTAC112.2002W
SOTr086/34.9SNOWBIRD VORTAC108.8004W
HMVr201/35.6HOLSTON MOUNTAIN VORTAC114.6004W

 
NDB name  Hdg/Dist  Freq  Var  ID
HEMLOCK235/28.232002WBAR -... .- .-.
FIDDLERS293/34.039107WFIQ ..-. .. --.-
BROAD RIVER017/36.337907WBRA -... .-. .-

Airport Services

Runway Information

Runway 14/32

Dimensions: 2900 x 50 ft. / 884 x 15 m
Surface: asphalt
RUNWAY 14  RUNWAY 32
Traffic pattern: leftright

Airport Ownership and Management from official FAA records

Ownership: Privately-owned
Owner: MOUNTAIN AIR AIRPORT FACILITY INC
100 CLUB DR. SUITE 102
BURNSVILLE, NC 28714
Phone 828-682-1578
Manager: KAREN GRIFFIN
100 CLUB DR. STE 102
BURNSVILLE, NC 28714
Phone 828-682-1578

Airport Operational Statistics

Aircraft based on the field: 33
Single engine airplanes: 25
Multi engine airplanes: 5
Helicopters: 3
    
Aircraft operations: 140/year *
89% transient general aviation
11% military
* for 12-month period ending 30 June 2021

Additional Remarks

FOR CD CTC ATLANTA ARTCC AT 770-210-7692.
HIGH TERRAIN ALL QUADRANTS, RWY 32 UPHILL GRADE, RWY 14 PREFERRED FOR TAKEOFF
ARPT FOR RESIDENTS ONLY. GUESTS NEED PPR 828-682-1578
NO WINTER MAINTENANCE OR SNOW REMOVAL
(UNICOM) AUTOMATED WEATHER 3-MIC CLICKS RW32 4-MIC CLICKS RW14
ARPT PROCEDURES AND NOTAMS ARE AVBL AT WWW.MOUNTAINAIRNC.COM
WILDLIFE ON AND INVOF ARPT
VFR CIVIL DAY LIGHT OPS ONLY
(ANNUAL GENERAL LOCAL OPERATIONS) CAUTION: MOUNTAINOUS TERRAIN ALL QUADRANTS.

Instrument Procedures

There are no published instrument procedures at 2NC0.

Some nearby airports with instrument procedures:

KAVL - Asheville Regional Airport (28 nm S)
KGCY - Greeneville Municipal Airport (30 nm NW)
0A9 - Elizabethton Municipal Airport (31 nm N)
KFQD - Rutherford County Airport/Marchman Field (33 nm SE)
KMRN - Foothills Regional Airport (36 nm E)
 
Loc | Ops | Rwys | IFR | FBO | Links
Com | Nav | Svcs | Stats | Notes
Area around 2NC0 (Mountain Air Airport)
 
Road maps at: MapQuest Bing Google
 
Aerial photo
WARNING: Photo may not be current or correct
Aerial photo of 2NC0 (Mountain Air Airport)
Photo by Paul Aranha
Photo taken 07-Oct-2006

Do you have a better or more recent aerial photo of Mountain Air Airport that you would like to share? If so, please send us your photo.

 
Sectional chart

 
Airport distance calculator
Flying to Mountain Air Airport? Find the distance to fly.

From to 2NC0

Sunrise and sunset
Times for 17-Jan-2022
 Local
(UTC-5)
 Zulu
(UTC)
Morning civil twilight07:1212:12
Sunrise07:3912:39
Sunset17:4022:40
Evening civil twilight18:0723:07

Current date and time
Zulu (UTC)  18-Jan-2022 00:08:13
Local (UTC-5)  17-Jan-2022 19:08:13
 
METAR
KAVL 
28nm S 
172354Z 35012G24KT 10SM FEW035 M02/M07 A2980 RMK AO2 PK WND 33026/2335 SLP104 60000 T10171067 10006 21017 51018
KGCY 
30nm NW 
172355Z AUTO 24007G14KT 220V280 8SM OVC008 M02/M03 A2993 RMK A01
K0A9 
31nm N 
172355Z AUTO VRB06G13KT 7SM OVC011 M02/M03 A2990 RMK A01
KFQD 
34nm SE 
172355Z AUTO 10003KT 10SM CLR 00/M06 A2985 RMK AO2
TAF
KAVL 
28nm S 
171727Z 1718/1818 33016G30KT P6SM SCT040 SCT150 WS020/30045KT FM172300 33017G30KT P6SM FEW250 FM180600 33009KT P6SM FEW250 FM181100 33006KT 5SM BR FEW250 FM181400 34006KT P6SM SKC
NOTAMs
Click for the latest NOTAMs
NOTAMs are issued by the DoD/FAA and will open in a separate window not controlled by AirNav.

 

 
 

Would you like to see your business listed on this page?

 If your business provides an interesting product or service to pilots, flight crews, aircraft, or users of the Mountain Air Airport, you should consider listing it here.  To start the listing process, click on the button below
 
Add a business
 

Other Pages about Mountain Air Airport

www.mtnair.org
Mountain Air weather
AWOS/ASOS display
 
Update a link
 
Copyright © AirNav, LLC. All rights reserved. Privacy Policy  Contact